createdAt,value
2018-08-09T00:02:08.398Z,95665.05
2018-08-09T00:04:38.246Z,95665.95
2018-08-09T00:07:08.023Z,95665.70
2018-08-09T00:09:37.895Z,95670.22
2018-08-09T00:12:07.799Z,95665.01
2018-08-09T00:14:37.544Z,95666.45
2018-08-09T00:17:07.307Z,95668.03
2018-08-09T00:19:36.992Z,95666.47
2018-08-09T00:22:06.821Z,95670.57
2018-08-09T00:24:36.563Z,95668.76
2018-08-09T00:27:06.389Z,95666.72
2018-08-09T00:29:36.091Z,95661.40
2018-08-09T00:32:05.927Z,95668.61
2018-08-09T00:34:35.686Z,95663.67
2018-08-09T00:37:05.364Z,95660.67
2018-08-09T00:39:35.161Z,95667.13
2018-08-09T00:42:04.995Z,95668.43
2018-08-09T00:44:34.837Z,95678.27
2018-08-09T00:47:04.686Z,95670.13
2018-08-09T00:49:34.447Z,95666.30
2018-08-09T00:52:04.657Z,95673.66
2018-08-09T00:54:34.390Z,95669.50
2018-08-09T00:57:04.794Z,95671.19
2018-08-09T00:59:34.836Z,95667.80
2018-08-09T01:02:05.088Z,95671.41
2018-08-09T01:04:34.849Z,95661.27
2018-08-09T01:07:04.864Z,95658.56
2018-08-09T01:09:34.733Z,95669.16
2018-08-09T01:12:04.439Z,95673.51
2018-08-09T01:14:34.211Z,95668.91
2018-08-09T01:17:04.098Z,95669.27
2018-08-09T01:19:33.936Z,95668.58
2018-08-09T01:22:03.938Z,95663.06
2018-08-09T01:24:33.616Z,95663.98
2018-08-09T01:27:03.537Z,95662.79
2018-08-09T01:29:33.283Z,95665.44
2018-08-09T01:32:03.127Z,95665.49
2018-08-09T01:34:32.934Z,95659.69
2018-08-09T01:37:02.728Z,95666.67
2018-08-09T01:39:32.640Z,95666.80
2018-08-09T01:42:13.014Z,95670.42
2018-08-09T01:44:42.784Z,95667.75
2018-08-09T01:47:43.505Z,95663.03
2018-08-09T01:50:13.249Z,95658.88
2018-08-09T01:52:43.088Z,95662.05
2018-08-09T01:55:12.881Z,95659.56
2018-08-09T01:57:43.075Z,95661.70
2018-08-09T02:00:12.843Z,95657.45
2018-08-09T02:02:42.653Z,95657.11
2018-08-09T02:05:12.429Z,95654.95
2018-08-09T02:07:42.312Z,95656.53
2018-08-09T02:10:11.990Z,95661.34
2018-08-09T02:12:41.736Z,95664.17
2018-08-09T02:15:11.495Z,95672.14
2018-08-09T02:17:41.246Z,95664.59
2018-08-09T02:20:11.025Z,95662.25
2018-08-09T02:22:40.826Z,95662.88
2018-08-09T02:25:10.837Z,95662.39
2018-08-09T02:27:40.557Z,95664.22
2018-08-09T02:30:10.448Z,95666.64
2018-08-09T02:32:40.085Z,95660.44
2018-08-09T02:35:09.855Z,95661.86
2018-08-09T02:37:39.617Z,95662.30
2018-08-09T02:40:09.464Z,95667.59
2018-08-09T02:42:39.238Z,95669.09
2018-08-09T02:45:09.052Z,95664.64
2018-08-09T02:47:38.720Z,95666.44
2018-08-09T02:50:08.524Z,95672.44
2018-08-09T02:52:38.181Z,95677.72
2018-08-09T02:55:07.953Z,95677.44
2018-08-09T02:57:37.728Z,95679.52
2018-08-09T03:00:09.323Z,95682.02
2018-08-09T03:02:39.076Z,95690.65
2018-08-09T03:05:09.058Z,95690.77
2018-08-09T03:07:38.829Z,95698.34
2018-08-09T03:10:08.678Z,95696.56
2018-08-09T03:12:38.552Z,95694.72
2018-08-09T03:15:08.343Z,95689.58
2018-08-09T03:17:38.239Z,95690.77
2018-08-09T03:20:07.942Z,95694.17
2018-08-09T03:22:37.669Z,95691.91
2018-08-09T03:25:07.454Z,95691.85
2018-08-09T03:27:37.104Z,95692.09
2018-08-09T03:30:08.522Z,95686.31
2018-08-09T03:32:38.365Z,95687.03
2018-08-09T03:35:08.130Z,95688.02
2018-08-09T03:37:37.879Z,95692.41
2018-08-09T03:40:07.915Z,95696.02
2018-08-09T03:42:37.679Z,95693.97
2018-08-09T03:45:07.855Z,95694.14
2018-08-09T03:47:37.571Z,95701.63
2018-08-09T03:50:07.632Z,95702.92
2018-08-09T03:52:37.358Z,95699.92
2018-08-09T03:55:07.240Z,95701.75
2018-08-09T03:57:37.087Z,95702.45
2018-08-09T04:00:08.624Z,95702.05
2018-08-09T04:02:38.864Z,95701.69
2018-08-09T04:05:09.517Z,95711.08
2018-08-09T04:07:39.832Z,95719.30
2018-08-09T04:10:10.187Z,95722.94
2018-08-09T04:12:39.933Z,95718.72
2018-08-09T04:15:11.252Z,95722.48
2018-08-09T04:17:41.161Z,95725.16
2018-08-09T04:20:10.967Z,95724.84
2018-08-09T04:22:40.843Z,95740.66
2018-08-09T04:25:10.597Z,95731.98
2018-08-09T04:27:40.431Z,95731.86
2018-08-09T04:30:10.316Z,95738.41
2018-08-09T04:32:40.139Z,95737.81
2018-08-09T04:35:09.873Z,95740.20
2018-08-09T04:37:39.664Z,95736.80
2018-08-09T04:40:09.539Z,95732.42
2018-08-09T04:42:39.284Z,95732.14
2018-08-09T04:45:09.640Z,95737.16
2018-08-09T04:47:39.443Z,95734.54
2018-08-09T04:50:09.709Z,95738.27
2018-08-09T04:52:39.501Z,95736.13
2018-08-09T04:55:09.301Z,95746.80
2018-08-09T04:57:39.735Z,95751.30
2018-08-09T05:00:10.550Z,95752.09
2018-08-09T05:02:41.498Z,95752.36
2018-08-09T05:05:11.639Z,95755.86
2018-08-09T05:07:41.995Z,95753.23
2018-08-09T05:10:16.108Z,95758.23
2018-08-09T05:12:46.184Z,95762.56
2018-08-09T05:15:16.213Z,95759.75
2018-08-09T05:17:46.670Z,95765.53
2018-08-09T05:20:20.946Z,95765.84
2018-08-09T05:22:51.098Z,95770.48
2018-08-09T05:25:21.713Z,95770.59
2018-08-09T05:27:52.133Z,95774.50
2018-08-09T05:30:23.285Z,95771.31
2018-08-09T05:32:53.727Z,95775.75
2018-08-09T05:35:24.217Z,95776.05
2018-08-09T05:37:54.218Z,95774.63
2018-08-09T05:40:25.297Z,95775.12
2018-08-09T05:42:55.894Z,95778.64
2018-08-09T05:45:26.270Z,95779.39
2018-08-09T05:47:56.590Z,95774.43
2018-08-09T05:50:26.640Z,95776.22
2018-08-09T05:52:56.795Z,95783.51
2018-08-09T05:55:26.737Z,95781.84
2018-08-09T05:57:56.993Z,95787.52
2018-08-09T06:00:27.503Z,95785.73
2018-08-09T06:02:57.662Z,95782.88
2018-08-09T06:05:28.027Z,95776.94
2018-08-09T06:07:58.371Z,95779.66
2018-08-09T06:10:28.665Z,95783.10
2018-08-09T06:12:58.759Z,95789.88
2018-08-09T06:15:28.710Z,95778.19
2018-08-09T06:17:58.499Z,95771.23
2018-08-09T06:20:28.095Z,95770.53
2018-08-09T06:22:57.885Z,95763.50
2018-08-09T06:25:27.636Z,95767.50
2018-08-09T06:27:57.623Z,95766.27
2018-08-09T06:30:27.585Z,95756.95
2018-08-09T06:32:57.273Z,95752.02
2018-08-09T06:35:27.163Z,95752.08
2018-08-09T06:37:56.975Z,95752.42
2018-08-09T06:40:26.801Z,95744.41
2018-08-09T06:42:56.577Z,95739.69
2018-08-09T06:45:26.426Z,95744.31
2018-08-09T06:47:56.327Z,95747.99
2018-08-09T06:50:26.307Z,95745.30
2018-08-09T06:52:55.891Z,95739.84
2018-08-09T06:55:25.716Z,95735.66
2018-08-09T06:57:55.512Z,95742.63
2018-08-09T07:00:25.326Z,95728.84
2018-08-09T07:02:55.118Z,95727.97
2018-08-09T07:05:25.106Z,95730.35
2018-08-09T07:07:54.760Z,95726.91
2018-08-09T07:10:24.424Z,95725.73
2018-08-09T07:12:54.091Z,95730.14
2018-08-09T07:15:23.797Z,95728.58
2018-08-09T07:17:53.622Z,95723.65
2018-08-09T07:20:23.515Z,95727.23
2018-08-09T07:22:53.203Z,95729.97
2018-08-09T07:25:22.966Z,95718.20
2018-08-09T07:27:52.725Z,95719.15
2018-08-09T07:30:22.518Z,95717.55
2018-08-09T07:32:52.389Z,95715.75
2018-08-09T07:35:22.151Z,95712.97
2018-08-09T07:37:51.800Z,95599.90
2018-08-09T07:40:21.540Z,95717.51
2018-08-09T07:42:51.353Z,95708.47
2018-08-09T07:45:21.032Z,95703.88
2018-08-09T07:47:50.849Z,95706.53
2018-08-09T07:50:20.551Z,95707.30
2018-08-09T07:52:50.387Z,95705.56
2018-08-09T07:55:20.138Z,95699.15
2018-08-09T07:57:49.801Z,95696.58
2018-08-09T08:00:19.514Z,95690.13
2018-08-09T08:02:49.392Z,95685.25
2018-08-09T08:05:19.173Z,95682.58
2018-08-09T08:07:49.258Z,95683.52
2018-08-09T08:10:19.154Z,95683.89
2018-08-09T08:12:49.033Z,95682.27
2018-08-09T08:15:18.821Z,95672.37
2018-08-09T08:17:48.571Z,95672.66
2018-08-09T08:20:18.409Z,95674.42
2018-08-09T08:22:48.102Z,95671.52
2018-08-09T08:25:17.783Z,95663.43
2018-08-09T08:27:47.727Z,95669.88
2018-08-09T08:30:17.730Z,95656.67
2018-08-09T08:32:47.636Z,95650.92
2018-08-09T08:35:17.639Z,95656.98
2018-08-09T08:37:47.385Z,95654.00
2018-08-09T08:40:17.296Z,95651.10
2018-08-09T08:42:47.140Z,95642.84
2018-08-09T08:45:16.975Z,95643.39
2018-08-09T08:47:46.720Z,95645.09
2018-08-09T08:50:16.538Z,95643.75
2018-08-09T08:52:46.310Z,95643.13
2018-08-09T08:55:16.203Z,95640.70
2018-08-09T08:57:46.106Z,95639.27
2018-08-09T09:00:16.009Z,95642.69
2018-08-09T09:02:45.688Z,95640.21
2018-08-09T09:05:15.583Z,95638.55
2018-08-09T09:07:45.331Z,95639.97
2018-08-09T09:10:15.599Z,95628.02
2018-08-09T09:12:45.449Z,95637.58
2018-08-09T09:15:16.443Z,95630.52
2018-08-09T09:17:46.251Z,95628.67
2018-08-09T09:20:18.011Z,95636.81
2018-08-09T09:22:47.946Z,95630.49
2018-08-09T09:25:17.679Z,95627.49
2018-08-09T09:27:47.403Z,95618.02
2018-08-09T09:30:19.123Z,95614.45
2018-08-09T09:32:49.037Z,95619.63
2018-08-09T09:35:18.737Z,95608.88
2018-08-09T09:37:48.565Z,95603.67
2018-08-09T09:40:18.818Z,95609.45
2018-08-09T09:42:48.595Z,95598.61
2018-08-09T09:45:18.331Z,95607.26
2018-08-09T09:47:48.099Z,95598.59
2018-08-09T09:50:17.786Z,95595.41
2018-08-09T09:52:47.525Z,95597.92
2018-08-09T09:55:17.425Z,95594.58
2018-08-09T09:57:47.181Z,95582.44
2018-08-09T10:00:22.005Z,95587.64
2018-08-09T10:02:51.729Z,95583.73
2018-08-09T10:05:21.478Z,95409.27
2018-08-09T10:07:51.302Z,95590.06
2018-08-09T10:10:21.912Z,95583.61
2018-08-09T10:12:51.757Z,95581.80
2018-08-09T10:15:21.562Z,95576.95
2018-08-09T10:17:51.350Z,95586.17
2018-08-09T10:20:21.014Z,95579.53
2018-08-09T10:22:50.765Z,95580.56
2018-08-09T10:25:20.522Z,95585.71
2018-08-09T10:27:50.273Z,95577.91
2018-08-09T10:30:20.170Z,95578.98
2018-08-09T10:32:49.999Z,95579.69
2018-08-09T10:35:19.773Z,95576.75
2018-08-09T10:37:49.582Z,95577.48
2018-08-09T10:40:19.478Z,95572.19
2018-08-09T10:42:49.324Z,95568.77
2018-08-09T10:45:18.872Z,95568.94
2018-08-09T10:47:48.707Z,95563.32
2018-08-09T10:50:18.579Z,95563.64
2018-08-09T10:52:48.309Z,95565.42
2018-08-09T10:55:18.113Z,95568.77
2018-08-09T10:57:47.913Z,95560.73
2018-08-09T11:00:17.709Z,95557.56
2018-08-09T11:02:47.468Z,95561.75
2018-08-09T11:05:17.385Z,95412.67
2018-08-09T11:07:47.143Z,95398.13
2018-08-09T11:10:16.699Z,95556.16
2018-08-09T11:12:47.264Z,95556.67
2018-08-09T11:15:17.438Z,95559.23
2018-08-09T11:17:47.878Z,95556.02
2018-08-09T11:20:18.913Z,95553.02
2018-08-09T11:22:49.520Z,95556.33
2018-08-09T11:25:19.727Z,95540.17
2018-08-09T11:27:50.085Z,95539.38
2018-08-09T11:30:20.608Z,95543.11
2018-08-09T11:32:50.953Z,95536.06
2018-08-09T11:35:21.429Z,95540.11
2018-08-09T11:37:52.119Z,95537.55
2018-08-09T11:40:22.723Z,95538.31
2018-08-09T11:42:53.336Z,95528.76
2018-08-09T11:45:23.709Z,95527.16
2018-08-09T11:47:54.168Z,95532.09
2018-08-09T11:50:24.741Z,95538.59
2018-08-09T11:52:54.958Z,95521.54
2018-08-09T11:55:24.752Z,95518.38
2018-08-09T11:57:54.691Z,95505.24
2018-08-09T12:00:25.582Z,95513.79
2018-08-09T12:02:55.430Z,95503.23
2018-08-09T12:05:25.230Z,95500.03
2018-08-09T12:07:54.995Z,95494.44
2018-08-09T12:10:24.822Z,95495.42
2018-08-09T12:12:54.962Z,95494.00
2018-08-09T12:15:24.877Z,95499.81
2018-08-09T12:17:54.469Z,95497.56
2018-08-09T12:20:24.212Z,95490.52
2018-08-09T12:22:54.114Z,95485.44
2018-08-09T12:25:23.974Z,95491.67
2018-08-09T12:27:53.804Z,95491.34
2018-08-09T12:30:23.571Z,95487.14
2018-08-09T12:32:53.437Z,95482.45
2018-08-09T12:35:23.234Z,95480.42
2018-08-09T12:37:53.075Z,95480.97
2018-08-09T12:40:22.864Z,95484.81
2018-08-09T12:42:52.791Z,95481.40
2018-08-09T12:45:22.770Z,95482.84
2018-08-09T12:47:52.641Z,95486.98
2018-08-09T12:50:22.497Z,95480.42
2018-08-09T12:52:52.185Z,95479.55
2018-08-09T12:55:21.980Z,95484.41
2018-08-09T12:57:51.793Z,95479.22
2018-08-09T13:00:21.727Z,95488.44
2018-08-09T13:02:51.590Z,95483.30
2018-08-09T13:05:21.378Z,95484.02
2018-08-09T13:07:51.157Z,95484.13
2018-08-09T13:10:21.060Z,95478.17
2018-08-09T13:12:50.865Z,95481.03
2018-08-09T13:15:20.938Z,95474.54
2018-08-09T13:17:50.799Z,95474.69
2018-08-09T13:20:21.790Z,95469.11
2018-08-09T13:22:52.402Z,95472.64
2018-08-09T13:25:22.358Z,95466.97
2018-08-09T13:27:52.135Z,95456.25
2018-08-09T13:30:23.423Z,95457.91
2018-08-09T13:32:53.265Z,95466.70
2018-08-09T13:35:23.249Z,95455.85
2018-08-09T13:37:53.107Z,95468.07
2018-08-09T13:40:23.613Z,95467.38
2018-08-09T13:42:53.470Z,95467.89
2018-08-09T13:45:23.264Z,95470.67
2018-08-09T13:47:53.165Z,95467.53
2018-08-09T13:50:23.107Z,95474.80
2018-08-09T13:52:53.005Z,95471.53
2018-08-09T13:55:22.985Z,95468.77
2018-08-09T13:57:52.745Z,95464.94
2018-08-09T14:00:22.617Z,95458.86
2018-08-09T14:02:52.458Z,95454.98
2018-08-09T14:05:22.329Z,95441.25
2018-08-09T14:07:52.194Z,95284.59
2018-08-09T14:10:21.953Z,95455.45
2018-08-09T14:12:51.751Z,95459.19
2018-08-09T14:15:21.596Z,95458.97
2018-08-09T14:17:51.598Z,95456.01
2018-08-09T14:20:21.378Z,95461.23
2018-08-09T14:22:51.106Z,95461.52
2018-08-09T14:25:20.865Z,95458.41
2018-08-09T14:27:50.607Z,95460.81
2018-08-09T14:30:20.510Z,95465.95
2018-08-09T14:32:50.216Z,95455.74
2018-08-09T14:35:20.034Z,95462.43
2018-08-09T14:37:49.834Z,95467.20
2018-08-09T14:40:19.570Z,95462.30
2018-08-09T14:42:49.324Z,95455.91
2018-08-09T14:45:19.129Z,95458.72
2018-08-09T14:47:48.926Z,95465.75
2018-08-09T14:50:18.688Z,95459.75
2018-08-09T14:52:48.423Z,95456.11
2018-08-09T14:55:18.167Z,95463.23
2018-08-09T14:57:47.893Z,95464.86
2018-08-09T15:00:19.751Z,95456.63
2018-08-09T15:02:49.641Z,95455.33
2018-08-09T15:05:19.457Z,95462.41
2018-08-09T15:07:49.155Z,95462.54
2018-08-09T15:10:19.613Z,95452.95
2018-08-09T15:12:49.298Z,95442.68
2018-08-09T15:15:18.994Z,95441.42
2018-08-09T15:17:48.749Z,95450.27
2018-08-09T15:20:18.717Z,95446.39
2018-08-09T15:22:48.657Z,95447.89
2018-08-09T15:25:18.513Z,95446.38
2018-08-09T15:27:48.414Z,95448.98
2018-08-09T15:30:19.577Z,95451.95
2018-08-09T15:32:49.815Z,95449.67
2018-08-09T15:35:19.777Z,95445.38
2018-08-09T15:37:49.528Z,95451.50
2018-08-09T15:40:19.472Z,95443.06
2018-08-09T15:42:49.425Z,95445.59
2018-08-09T15:45:19.261Z,95442.34
2018-08-09T15:47:49.298Z,95438.81
2018-08-09T15:50:20.800Z,95443.80
2018-08-09T15:52:50.763Z,95441.19
2018-08-09T15:55:20.889Z,95448.81
2018-08-09T15:57:50.673Z,95449.48
2018-08-09T16:00:22.490Z,95457.58
2018-08-09T16:02:52.471Z,95463.42
2018-08-09T16:05:22.359Z,95467.97
2018-08-09T16:07:52.302Z,95471.73
2018-08-09T16:10:23.015Z,95475.84
2018-08-09T16:12:53.091Z,95481.13
2018-08-09T16:15:22.887Z,95479.95
2018-08-09T16:17:52.732Z,95491.27
2018-08-09T16:20:22.951Z,95502.14
2018-08-09T16:22:52.790Z,95507.67
2018-08-09T16:25:22.611Z,95513.35
2018-08-09T16:27:52.411Z,95515.56
2018-08-09T16:30:25.310Z,95517.17
2018-08-09T16:32:55.418Z,95519.31
2018-08-09T16:35:25.316Z,95523.41
2018-08-09T16:37:55.264Z,95527.37
2018-08-09T16:40:27.407Z,95523.36
2018-08-09T16:42:57.386Z,95527.77
2018-08-09T16:45:27.130Z,95523.36
2018-08-09T16:47:56.857Z,95531.66
2018-08-09T16:50:27.723Z,95528.77
2018-08-09T16:52:57.543Z,95530.61
2018-08-09T16:55:27.698Z,95539.58
2018-08-09T16:57:57.540Z,95546.40
2018-08-09T17:00:28.584Z,95543.34
2018-08-09T17:02:58.943Z,95544.39
2018-08-09T17:05:29.254Z,95552.02
2018-08-09T17:08:00.004Z,95558.14
2018-08-09T17:10:30.866Z,95555.52
2018-08-09T17:13:01.863Z,95561.66
2018-08-09T17:15:32.176Z,95566.88
2018-08-09T17:18:02.440Z,95572.37
2018-08-09T17:20:34.660Z,95577.70
2018-08-09T17:23:05.656Z,95584.61
2018-08-09T17:25:36.136Z,95590.69
2018-08-09T17:28:06.650Z,95595.25
2018-08-09T17:30:38.087Z,95595.18
2018-08-09T17:33:08.724Z,95603.04
2018-08-09T17:35:38.916Z,95603.35
2018-08-09T17:38:09.205Z,95605.91
2018-08-09T17:40:39.884Z,95610.21
2018-08-09T17:43:10.444Z,95615.41
2018-08-09T17:45:40.758Z,95624.42
2018-08-09T17:48:10.931Z,95620.77
2018-08-09T17:50:42.397Z,95627.88
2018-08-09T17:53:12.881Z,95643.72
2018-08-09T17:55:42.925Z,95651.38
2018-08-09T17:58:13.484Z,95651.73
2018-08-09T18:00:44.377Z,95649.75
2018-08-09T18:03:14.751Z,95656.72
2018-08-09T18:05:45.245Z,95663.09
2018-08-09T18:08:16.827Z,95661.39
2018-08-09T18:10:48.264Z,95669.67
2018-08-09T18:13:18.483Z,95684.03
2018-08-09T18:15:48.965Z,95692.47
2018-08-09T18:18:19.138Z,95684.31
2018-08-09T18:20:50.257Z,95681.83
2018-08-09T18:23:20.795Z,95687.81
2018-08-09T18:25:51.241Z,95691.15
2018-08-09T18:28:21.431Z,95695.28
2018-08-09T18:30:52.754Z,95701.91
2018-08-09T18:33:23.243Z,95700.26
2018-08-09T18:35:53.564Z,95699.96
2018-08-09T18:38:24.094Z,95711.13
2018-08-09T18:40:55.749Z,95714.16
2018-08-09T18:43:26.090Z,95712.34
2018-08-09T18:45:56.435Z,95717.51
2018-08-09T18:48:27.024Z,95712.27
2018-08-09T18:50:57.653Z,95716.83
2018-08-09T18:53:28.090Z,95718.88
2018-08-09T18:55:58.501Z,95715.44
2018-08-09T18:58:28.749Z,95707.78
2018-08-09T19:01:00.076Z,95709.52
2018-08-09T19:03:30.529Z,95717.81
2018-08-09T19:06:01.092Z,95720.69
2018-08-09T19:08:31.862Z,95717.62
2018-08-09T19:11:03.096Z,95717.00
2018-08-09T19:14:57.692Z,95716.78
2018-08-09T19:17:28.243Z,95722.48
2018-08-09T19:19:58.397Z,95728.84
2018-08-09T19:22:29.047Z,95728.39
2018-08-09T19:24:59.424Z,95726.50
2018-08-09T19:27:30.319Z,95726.57
2018-08-09T19:30:00.764Z,95729.78
2018-08-09T19:32:31.307Z,95732.05
2018-08-09T19:35:01.781Z,95735.11
2018-08-09T19:37:32.093Z,95729.96
2018-08-09T19:40:02.901Z,95736.63
2018-08-09T19:42:33.212Z,95738.56
2018-08-09T19:45:03.840Z,95735.52
2018-08-09T19:47:34.262Z,95736.82
2018-08-09T19:50:06.547Z,95730.87
2018-08-09T19:52:36.685Z,95738.23
2018-08-09T19:55:08.623Z,95744.59
2018-08-09T19:57:38.886Z,95746.88
2018-08-09T20:00:11.010Z,95749.32
2018-08-09T20:02:41.520Z,95742.68
2018-08-09T20:05:12.234Z,95745.01
2018-08-09T20:07:42.861Z,95745.59
2018-08-09T20:10:13.615Z,95749.48
2018-08-09T20:12:44.921Z,95752.61
2018-08-09T20:15:18.024Z,95747.61
2018-08-09T20:17:48.678Z,95753.27
2018-08-09T20:20:21.678Z,95757.16
2018-08-09T20:22:52.117Z,95754.97
2018-08-09T20:25:22.292Z,95751.00
2018-08-09T20:27:52.611Z,95754.90
2018-08-09T20:30:23.487Z,95752.45
2018-08-09T20:32:53.686Z,95754.83
2018-08-09T20:35:25.354Z,95768.93
2018-08-09T20:37:55.566Z,95765.19
2018-08-09T20:40:27.133Z,95765.31
2018-08-09T20:42:57.609Z,95760.16
2018-08-09T20:45:27.911Z,95767.28
2018-08-09T20:47:58.291Z,95772.27
2018-08-09T20:50:29.890Z,95777.66
2018-08-09T20:53:00.142Z,95766.88
2018-08-09T20:55:30.369Z,95774.73
2018-08-09T20:58:00.786Z,95770.09
2018-08-09T21:00:33.340Z,95774.95
2018-08-09T21:03:04.579Z,95770.77
2018-08-09T21:05:36.907Z,95772.70
2018-08-09T21:08:07.038Z,95780.77
2018-08-09T21:10:39.262Z,95779.36
2018-08-09T21:13:09.717Z,95778.47
2018-08-09T21:15:40.049Z,95778.47
2018-08-09T21:18:10.537Z,95781.16
2018-08-09T21:20:41.714Z,95785.97
2018-08-09T21:23:12.330Z,95781.62
2018-08-09T21:25:43.091Z,95780.88
2018-08-09T21:28:13.310Z,95791.41
2018-08-09T21:30:43.952Z,95785.20
2018-08-09T21:33:14.439Z,95788.94
2018-08-09T21:35:44.814Z,95790.44
2018-08-09T21:38:14.681Z,95782.33
2018-08-09T21:40:44.594Z,95788.98
2018-08-09T21:43:14.382Z,95790.22
2018-08-09T21:45:44.146Z,95793.73
2018-08-09T21:48:13.850Z,95795.00
2018-08-09T21:50:43.643Z,95799.20
2018-08-09T21:53:13.378Z,95792.27
2018-08-09T21:55:44.103Z,95796.39
2018-08-09T21:58:14.121Z,95796.31
2018-08-09T22:00:51.441Z,95799.75
2018-08-09T22:03:23.506Z,95800.95
2018-08-09T22:05:58.606Z,95798.02
2018-08-09T22:08:34.062Z,95800.08
2018-08-09T22:11:10.282Z,95796.42
2018-08-09T22:13:45.451Z,95797.38
2018-08-09T22:16:20.678Z,95792.67
2018-08-09T22:18:55.651Z,95795.16
2018-08-09T22:21:31.167Z,95796.89
2018-08-09T22:24:01.700Z,95803.75
2018-08-09T22:26:32.015Z,95802.63
2018-08-09T22:29:02.845Z,95802.66
2018-08-09T22:31:39.046Z,95806.72
2018-08-09T22:34:09.738Z,95801.86
2018-08-09T22:36:40.225Z,95810.55
2018-08-09T22:39:10.766Z,95807.80
2018-08-09T22:41:41.798Z,95803.17
2018-08-09T22:44:11.913Z,95805.81
2018-08-09T22:46:42.390Z,95797.62
2018-08-09T22:49:12.177Z,95798.74
2018-08-09T22:51:42.871Z,95804.05
2018-08-09T22:54:12.610Z,95800.48
2018-08-09T22:56:42.420Z,95801.89
2018-08-09T22:59:12.224Z,95799.05
2018-08-09T23:01:41.982Z,95803.40
2018-08-09T23:04:11.838Z,95805.89
2018-08-09T23:06:41.607Z,95798.26
2018-08-09T23:09:12.055Z,95803.84
2018-08-09T23:11:42.445Z,95798.64
2018-08-09T23:14:12.638Z,95806.95
2018-08-09T23:16:42.665Z,95806.50
2018-08-09T23:19:12.805Z,95811.12
2018-08-09T23:21:44.305Z,95811.42
2018-08-09T23:24:14.801Z,95810.43
2018-08-09T23:26:44.674Z,95809.70
2018-08-09T23:29:14.387Z,95811.57
2018-08-09T23:31:45.182Z,95806.83
2018-08-09T23:34:15.713Z,95808.08
2018-08-09T23:36:46.394Z,95809.72
2018-08-09T23:39:16.778Z,95809.94
2018-08-09T23:41:47.418Z,95810.34
2018-08-09T23:44:17.589Z,95813.53
2018-08-09T23:46:47.900Z,95809.13
2018-08-09T23:49:18.689Z,95814.38
2018-08-09T23:51:49.895Z,95807.98
2018-08-09T23:54:20.502Z,95816.83
2018-08-09T23:56:51.337Z,95816.73
2018-08-09T23:59:21.780Z,95809.30
